createdAt,value
2023-07-02T00:00:53.210Z,33.86
2023-07-02T00:01:53.231Z,34.22
2023-07-02T00:02:53.212Z,35.55
2023-07-02T00:03:53.185Z,37.94
2023-07-02T00:04:53.198Z,37.61
2023-07-02T00:05:53.167Z,35.29
2023-07-02T00:06:53.131Z,39.94
2023-07-02T00:07:53.217Z,39.98
2023-07-02T00:08:53.108Z,34.41
2023-07-02T00:09:53.090Z,35.35
2023-07-02T00:10:53.174Z,34.98
2023-07-02T00:11:53.077Z,35.48
2023-07-02T00:12:53.066Z,34.65
2023-07-02T00:13:53.051Z,34.19
2023-07-02T00:14:53.047Z,40.77
2023-07-02T00:15:53.040Z,36.31
2023-07-02T00:16:53.041Z,34.75
2023-07-02T00:17:53.059Z,34.64
2023-07-02T00:18:53.003Z,34.94
2023-07-02T00:19:53.609Z,34.42
2023-07-02T00:20:52.995Z,33.95
2023-07-02T00:21:52.972Z,39.69
2023-07-02T00:22:52.957Z,35.68
2023-07-02T00:23:52.955Z,33.38
2023-07-02T00:24:52.962Z,33.13
2023-07-02T00:25:52.921Z,33.60
2023-07-02T00:26:52.933Z,33.53
2023-07-02T00:27:52.906Z,33.76
2023-07-02T00:28:52.908Z,34.85
2023-07-02T00:29:52.896Z,33.77
2023-07-02T00:30:52.911Z,33.53
2023-07-02T00:31:52.863Z,34.75
2023-07-02T00:32:52.908Z,32.80
2023-07-02T00:33:52.893Z,35.49
2023-07-02T00:34:52.870Z,34.98
2023-07-02T00:35:52.828Z,34.09
2023-07-02T00:36:52.812Z,34.22
2023-07-02T00:37:52.806Z,34.49
2023-07-02T00:38:52.810Z,33.50
2023-07-02T00:39:52.793Z,33.98
2023-07-02T00:40:52.770Z,34.00
2023-07-02T00:41:52.778Z,34.34
2023-07-02T00:42:52.760Z,33.45
2023-07-02T00:43:52.774Z,34.24
2023-07-02T00:44:52.726Z,33.09
2023-07-02T00:45:52.735Z,33.03
2023-07-02T00:46:52.857Z,38.26
2023-07-02T00:47:52.704Z,33.22
2023-07-02T00:48:52.709Z,33.28
2023-07-02T00:49:52.674Z,33.41
2023-07-02T00:50:52.680Z,33.07
2023-07-02T00:51:52.654Z,34.21
2023-07-02T00:52:52.681Z,34.45
2023-07-02T00:53:52.644Z,33.79
2023-07-02T00:54:52.623Z,44.59
2023-07-02T00:55:52.608Z,38.68
2023-07-02T00:56:52.602Z,41.18
2023-07-02T00:57:52.606Z,33.38
2023-07-02T00:58:52.590Z,33.47
2023-07-02T00:59:52.573Z,33.25
2023-07-02T01:00:52.565Z,36.54
2023-07-02T01:01:52.630Z,34.01
2023-07-02T01:02:52.585Z,33.87
2023-07-02T01:03:52.547Z,37.11
2023-07-02T01:04:52.586Z,37.83
2023-07-02T01:05:52.639Z,34.40
2023-07-02T01:06:52.508Z,40.01
2023-07-02T01:07:52.504Z,37.35
2023-07-02T01:08:52.479Z,34.35
2023-07-02T01:09:52.461Z,44.23
2023-07-02T01:10:52.454Z,34.50
2023-07-02T01:11:52.456Z,34.78
2023-07-02T01:12:52.452Z,35.19
2023-07-02T01:13:52.420Z,34.59
2023-07-02T01:14:52.430Z,33.86
2023-07-02T01:15:52.454Z,33.16
2023-07-02T01:16:52.408Z,33.39
2023-07-02T01:17:52.424Z,33.72
2023-07-02T01:18:52.369Z,33.42
2023-07-02T01:19:52.394Z,33.44
2023-07-02T01:20:52.354Z,33.38
2023-07-02T01:21:52.358Z,33.96
2023-07-02T01:22:52.324Z,34.25
2023-07-02T01:23:52.303Z,34.02
2023-07-02T01:24:52.312Z,33.51
2023-07-02T01:25:52.296Z,34.34
2023-07-02T01:26:52.287Z,34.44
2023-07-02T01:27:52.270Z,44.33
2023-07-02T01:28:52.270Z,34.36
2023-07-02T01:29:52.242Z,34.10
2023-07-02T01:30:52.286Z,34.62
2023-07-02T01:31:52.302Z,33.99
2023-07-02T01:32:52.241Z,40.11
2023-07-02T01:33:52.236Z,39.41
2023-07-02T01:34:52.203Z,34.80
2023-07-02T01:35:52.193Z,34.26
2023-07-02T01:36:52.180Z,34.26
2023-07-02T01:37:52.178Z,33.32
2023-07-02T01:38:52.162Z,33.99
2023-07-02T01:39:52.163Z,33.72
2023-07-02T01:40:52.153Z,33.02
2023-07-02T01:41:52.121Z,33.04
2023-07-02T01:42:52.105Z,33.28
2023-07-02T01:43:52.097Z,33.79
2023-07-02T01:44:52.094Z,34.21
2023-07-02T01:45:52.148Z,40.30
2023-07-02T01:46:52.070Z,33.29
2023-07-02T01:47:52.090Z,33.94
2023-07-02T01:48:52.046Z,39.20
2023-07-02T01:49:52.070Z,33.10
2023-07-02T01:50:52.132Z,33.93
2023-07-02T01:51:52.019Z,33.70
2023-07-02T01:52:52.003Z,39.86
2023-07-02T01:53:52.009Z,33.91
2023-07-02T01:54:51.994Z,33.58
2023-07-02T01:55:51.973Z,33.87
2023-07-02T01:56:51.968Z,33.71
2023-07-02T01:57:51.954Z,33.61
2023-07-02T01:58:51.937Z,33.06
2023-07-02T01:59:51.942Z,33.92
2023-07-02T02:00:51.921Z,33.99
2023-07-02T02:01:51.912Z,35.20
2023-07-02T02:02:51.987Z,33.86
2023-07-02T02:03:51.905Z,34.05
2023-07-02T02:04:52.005Z,33.84
2023-07-02T02:05:51.856Z,34.03
2023-07-02T02:06:51.862Z,34.22
2023-07-02T02:07:51.845Z,34.40
2023-07-02T02:08:51.842Z,33.73
2023-07-02T02:09:51.826Z,34.98
2023-07-02T02:10:51.812Z,33.99
2023-07-02T02:11:51.793Z,34.48
2023-07-02T02:12:51.790Z,35.25
2023-07-02T02:13:51.793Z,36.98
2023-07-02T02:14:51.781Z,41.77
2023-07-02T02:15:51.818Z,42.97
2023-07-02T02:16:51.844Z,43.71
2023-07-02T02:17:51.753Z,43.70
2023-07-02T02:18:51.736Z,48.41
2023-07-02T02:19:51.714Z,43.99
2023-07-02T02:20:51.725Z,44.54
2023-07-02T02:21:51.689Z,45.39
2023-07-02T02:22:51.710Z,44.82
2023-07-02T02:23:51.688Z,44.32
2023-07-02T02:24:51.665Z,44.06
2023-07-02T02:25:51.648Z,45.01
2023-07-02T02:26:51.663Z,45.69
2023-07-02T02:27:51.641Z,44.48
2023-07-02T02:28:51.627Z,46.71
2023-07-02T02:29:51.612Z,47.20
2023-07-02T02:30:51.806Z,48.81
2023-07-02T02:31:51.649Z,47.64
2023-07-02T02:32:51.677Z,50.76
2023-07-02T02:33:51.561Z,48.86
2023-07-02T02:34:51.548Z,48.38
2023-07-02T02:35:51.548Z,49.37
2023-07-02T02:36:51.545Z,48.31
2023-07-02T02:37:51.562Z,48.73
2023-07-02T02:38:51.549Z,48.80
2023-07-02T02:39:51.510Z,48.96
2023-07-02T02:40:51.488Z,48.41
2023-07-02T02:41:51.491Z,48.44
2023-07-02T02:42:51.478Z,48.84
2023-07-02T02:43:51.508Z,48.92
2023-07-02T02:44:51.441Z,47.05
2023-07-02T02:45:51.450Z,41.01
2023-07-02T02:46:51.474Z,43.08
2023-07-02T02:47:51.445Z,44.08
2023-07-02T02:48:51.406Z,41.19
2023-07-02T02:49:51.395Z,41.83
2023-07-02T02:50:51.445Z,44.83
2023-07-02T02:51:51.373Z,44.39
2023-07-02T02:52:51.372Z,45.64
2023-07-02T02:53:51.394Z,48.75
2023-07-02T02:54:51.331Z,45.46
2023-07-02T02:55:51.335Z,44.73
2023-07-02T02:56:51.328Z,45.42
2023-07-02T02:57:51.299Z,46.77
2023-07-02T02:58:51.310Z,47.65
2023-07-02T02:59:51.283Z,48.07
2023-07-02T03:00:51.354Z,46.84
2023-07-02T03:01:51.313Z,41.53
2023-07-02T03:02:51.332Z,40.36
2023-07-02T03:03:51.428Z,44.05
2023-07-02T03:04:51.305Z,41.65
2023-07-02T03:05:51.273Z,44.70
2023-07-02T03:06:51.203Z,45.42
2023-07-02T03:07:51.189Z,45.94
2023-07-02T03:08:51.184Z,46.42
2023-07-02T03:09:51.201Z,44.94
2023-07-02T03:10:51.334Z,39.01
2023-07-02T03:11:51.188Z,40.17
2023-07-02T03:12:51.158Z,43.14
2023-07-02T03:13:51.140Z,50.10
2023-07-02T03:14:51.130Z,41.65
2023-07-02T03:15:51.133Z,39.90
2023-07-02T03:16:51.129Z,37.05
2023-07-02T03:17:51.125Z,37.03
2023-07-02T03:18:51.103Z,38.62
2023-07-02T03:19:51.118Z,38.52
2023-07-02T03:20:51.104Z,38.38
2023-07-02T03:21:51.042Z,41.42
2023-07-02T03:22:51.030Z,48.17
2023-07-02T03:23:51.012Z,45.74
2023-07-02T03:24:51.027Z,39.38
2023-07-02T03:25:51.031Z,41.38
2023-07-02T03:26:51.016Z,41.38
2023-07-02T03:27:51.024Z,40.30
2023-07-02T03:28:50.959Z,38.12
2023-07-02T03:29:50.962Z,41.26
2023-07-02T03:30:51.445Z,38.15
2023-07-02T03:31:50.941Z,38.20
2023-07-02T03:32:50.956Z,37.64
2023-07-02T03:33:50.921Z,37.95
2023-07-02T03:34:50.919Z,41.13
2023-07-02T03:35:50.913Z,40.94
2023-07-02T03:36:50.905Z,38.06
2023-07-02T03:37:50.876Z,41.97
2023-07-02T03:38:50.885Z,36.88
2023-07-02T03:39:50.925Z,38.49
2023-07-02T03:40:51.136Z,41.89
2023-07-02T03:41:50.833Z,37.18
2023-07-02T03:42:50.815Z,36.44
2023-07-02T03:43:50.830Z,36.11
2023-07-02T03:44:50.817Z,35.92
2023-07-02T03:45:50.844Z,47.14
2023-07-02T03:46:50.793Z,42.83
2023-07-02T03:47:50.812Z,42.83
2023-07-02T03:48:50.770Z,43.21
2023-07-02T03:49:50.760Z,46.33
2023-07-02T03:50:50.767Z,42.92
2023-07-02T03:51:50.725Z,38.25
2023-07-02T03:52:50.722Z,37.53
2023-07-02T03:53:50.722Z,39.31
2023-07-02T03:54:50.770Z,43.94
2023-07-02T03:55:50.714Z,38.23
2023-07-02T03:56:50.731Z,41.01
2023-07-02T03:57:50.704Z,37.96
2023-07-02T03:58:50.660Z,37.99
2023-07-02T03:59:50.646Z,36.21
2023-07-02T04:00:50.867Z,38.70
2023-07-02T04:01:50.650Z,40.90
2023-07-02T04:02:50.687Z,39.28
2023-07-02T04:03:50.621Z,39.22
2023-07-02T04:04:50.610Z,39.89
2023-07-02T04:05:50.621Z,42.35
2023-07-02T04:06:50.569Z,38.64
2023-07-02T04:07:50.607Z,39.00
2023-07-02T04:08:50.557Z,39.56
2023-07-02T04:09:50.552Z,39.02
2023-07-02T04:10:50.867Z,39.73
2023-07-02T04:11:50.532Z,38.75
2023-07-02T04:12:50.579Z,38.57
2023-07-02T04:13:50.501Z,45.19
2023-07-02T04:14:50.497Z,38.04
2023-07-02T04:15:50.517Z,37.60
2023-07-02T04:16:50.478Z,37.14
2023-07-02T04:17:50.475Z,37.19
2023-07-02T04:18:50.445Z,37.42
2023-07-02T04:19:50.451Z,37.88
2023-07-02T04:20:50.639Z,41.94
2023-07-02T04:21:50.430Z,41.92
2023-07-02T04:22:50.399Z,39.10
2023-07-02T04:23:50.412Z,39.55
2023-07-02T04:24:51.445Z,44.26
2023-07-02T04:26:15.872Z,37.13
2023-07-02T04:27:38.487Z,37.31
2023-07-02T04:27:52.303Z,40.19
2023-07-02T04:28:50.342Z,36.92
2023-07-02T04:29:50.309Z,41.53
2023-07-02T04:30:50.460Z,38.36
2023-07-02T04:31:50.353Z,42.53
2023-07-02T04:32:50.340Z,39.16
2023-07-02T04:33:50.356Z,39.83
2023-07-02T04:34:50.260Z,41.48
2023-07-02T04:35:50.301Z,38.93
2023-07-02T04:36:50.954Z,38.97
2023-07-02T04:37:50.250Z,37.07
2023-07-02T04:38:50.217Z,37.26
2023-07-02T04:39:50.225Z,38.29
2023-07-02T04:40:50.407Z,39.06
2023-07-02T04:41:50.210Z,38.97
2023-07-02T04:42:50.182Z,38.80
2023-07-02T04:43:50.163Z,39.34
2023-07-02T04:44:50.152Z,39.32
2023-07-02T04:45:50.292Z,43.63
2023-07-02T04:46:50.221Z,45.81
2023-07-02T04:47:50.128Z,39.04
2023-07-02T04:48:50.151Z,40.06
2023-07-02T04:49:50.094Z,45.97
2023-07-02T04:50:50.382Z,44.81
2023-07-02T04:51:50.070Z,37.67
2023-07-02T04:52:50.076Z,38.38
2023-07-02T04:53:50.049Z,36.98
2023-07-02T04:54:50.070Z,37.62
2023-07-02T04:55:50.050Z,40.47
2023-07-02T04:56:50.017Z,46.44
2023-07-02T04:57:50.034Z,38.96
2023-07-02T04:58:49.998Z,37.46
2023-07-02T04:59:50.010Z,38.43
2023-07-02T05:00:50.288Z,38.26
2023-07-02T05:01:50.026Z,38.40
2023-07-02T05:02:49.999Z,37.39
2023-07-02T05:03:50.086Z,43.32
2023-07-02T05:04:50.076Z,42.46
2023-07-02T05:05:49.959Z,39.70
2023-07-02T05:06:49.923Z,38.55
2023-07-02T05:07:49.931Z,39.96
2023-07-02T05:08:49.945Z,39.14
2023-07-02T05:09:49.934Z,41.99
2023-07-02T05:10:50.237Z,41.37
2023-07-02T05:11:49.868Z,41.46
2023-07-02T05:12:49.856Z,46.27
2023-07-02T05:13:49.879Z,39.27
2023-07-02T05:14:49.835Z,38.56
2023-07-02T05:15:49.825Z,40.87
2023-07-02T05:16:49.851Z,41.75
2023-07-02T05:17:49.827Z,39.45
2023-07-02T05:18:49.828Z,41.32
2023-07-02T05:19:49.796Z,40.74
2023-07-02T05:20:50.115Z,43.12
2023-07-02T05:21:49.808Z,48.11
2023-07-02T05:22:49.834Z,47.81
2023-07-02T05:23:49.795Z,45.55
2023-07-02T05:24:49.776Z,39.56
2023-07-02T05:25:49.755Z,44.37
2023-07-02T05:26:49.699Z,40.35
2023-07-02T05:27:49.761Z,43.09
2023-07-02T05:28:49.681Z,40.68
2023-07-02T05:29:51.499Z,39.12
2023-07-02T05:30:50.117Z,39.46
2023-07-02T05:31:49.748Z,43.07
2023-07-02T05:32:49.721Z,38.02
2023-07-02T05:33:49.633Z,41.63
2023-07-02T05:34:49.628Z,44.57
2023-07-02T05:35:49.639Z,43.14
2023-07-02T05:36:49.658Z,45.96
2023-07-02T05:37:49.630Z,42.80
2023-07-02T05:38:49.591Z,43.07
2023-07-02T05:39:49.670Z,38.07
2023-07-02T05:40:49.830Z,41.79
2023-07-02T05:41:49.656Z,45.47
2023-07-02T05:42:49.574Z,50.48
2023-07-02T05:43:49.537Z,46.03
2023-07-02T05:44:49.574Z,38.07
2023-07-02T05:45:49.514Z,38.73
2023-07-02T05:46:49.553Z,39.15
2023-07-02T05:47:49.499Z,45.11
2023-07-02T05:48:49.484Z,40.24
2023-07-02T05:49:49.486Z,39.03
2023-07-02T05:50:49.760Z,37.03
2023-07-02T05:51:49.464Z,39.09
2023-07-02T05:52:49.509Z,42.18
2023-07-02T05:53:49.764Z,37.57
2023-07-02T05:54:49.465Z,44.05
2023-07-02T05:55:49.473Z,40.59
2023-07-02T05:56:49.403Z,38.61
2023-07-02T05:57:49.433Z,43.16
2023-07-02T05:58:49.380Z,38.33
2023-07-02T05:59:49.388Z,43.73
2023-07-02T06:00:49.727Z,44.98
2023-07-02T06:01:49.396Z,42.17
2023-07-02T06:02:49.352Z,38.60
2023-07-02T06:03:49.364Z,39.42
2023-07-02T06:04:49.401Z,42.94
2023-07-02T06:05:49.395Z,43.74
2023-07-02T06:06:49.297Z,38.52
2023-07-02T06:07:49.374Z,45.84
2023-07-02T06:08:49.295Z,39.68
2023-07-02T06:09:49.279Z,40.15
2023-07-02T06:10:49.643Z,40.16
2023-07-02T06:11:49.235Z,39.65
2023-07-02T06:12:49.277Z,39.58
2023-07-02T06:13:49.212Z,38.94
2023-07-02T06:14:49.230Z,47.74
2023-07-02T06:15:49.211Z,38.18
2023-07-02T06:16:49.276Z,38.11
2023-07-02T06:17:49.221Z,38.88
2023-07-02T06:18:49.252Z,44.32
2023-07-02T06:19:49.194Z,40.20
2023-07-02T06:20:49.443Z,40.50
2023-07-02T06:21:49.137Z,40.64
2023-07-02T06:22:49.122Z,42.52
2023-07-02T06:23:49.114Z,45.42
2023-07-02T06:24:49.097Z,40.98
2023-07-02T06:25:49.089Z,44.38
2023-07-02T06:26:49.115Z,40.56
2023-07-02T06:27:49.108Z,43.67
2023-07-02T06:28:49.080Z,41.95
2023-07-02T06:29:49.075Z,37.95
2023-07-02T06:30:49.423Z,41.99
2023-07-02T06:31:49.042Z,40.78
2023-07-02T06:32:49.041Z,44.36
2023-07-02T06:33:49.073Z,41.87
2023-07-02T06:34:49.014Z,47.71
2023-07-02T06:35:49.025Z,39.30
2023-07-02T06:36:49.012Z,44.53
2023-07-02T06:37:48.983Z,47.68
2023-07-02T06:38:48.999Z,42.60
2023-07-02T06:39:49.011Z,47.30
2023-07-02T06:40:49.410Z,44.74
2023-07-02T06:41:48.999Z,47.38
2023-07-02T06:42:48.925Z,42.32
2023-07-02T06:43:48.915Z,38.47
2023-07-02T06:44:48.915Z,46.48
2023-07-02T06:45:48.876Z,44.38
2023-07-02T06:46:48.918Z,41.08
2023-07-02T06:47:48.939Z,38.93
2023-07-02T06:48:48.860Z,42.20
2023-07-02T06:49:48.865Z,45.49
2023-07-02T06:50:49.165Z,41.33
2023-07-02T06:51:48.815Z,40.08
2023-07-02T06:52:48.814Z,41.18
2023-07-02T06:53:48.846Z,44.86
2023-07-02T06:54:48.827Z,51.00
2023-07-02T06:55:48.769Z,39.51
2023-07-02T06:56:48.770Z,38.64
2023-07-02T06:57:48.762Z,42.61
2023-07-02T06:58:48.736Z,41.68
2023-07-02T06:59:50.572Z,43.54
2023-07-02T07:00:49.005Z,43.66
2023-07-02T07:01:48.798Z,39.51
2023-07-02T07:02:48.821Z,40.61
2023-07-02T07:03:48.767Z,44.46
2023-07-02T07:04:48.676Z,42.90
2023-07-02T07:05:48.657Z,39.24
2023-07-02T07:06:48.712Z,40.19
2023-07-02T07:07:48.640Z,42.31
2023-07-02T07:08:48.650Z,43.54
2023-07-02T07:09:48.621Z,52.62
2023-07-02T07:10:48.964Z,46.82
2023-07-02T07:11:48.664Z,41.89
2023-07-02T07:12:48.641Z,38.38
2023-07-02T07:13:48.588Z,44.28
2023-07-02T07:14:48.587Z,45.78
2023-07-02T07:15:48.578Z,45.41
2023-07-02T07:16:48.573Z,45.25
2023-07-02T07:17:48.736Z,42.16
2023-07-02T07:18:48.576Z,44.54
2023-07-02T07:19:48.572Z,48.14
2023-07-02T07:20:48.985Z,46.69
2023-07-02T07:21:48.768Z,43.24
2023-07-02T07:22:48.680Z,47.47
2023-07-02T07:23:48.590Z,43.97
2023-07-02T07:24:48.522Z,44.32
2023-07-02T07:25:48.608Z,46.51
2023-07-02T07:26:48.455Z,44.05
2023-07-02T07:27:48.577Z,45.88
2023-07-02T07:28:48.451Z,44.31
2023-07-02T07:29:48.530Z,50.41
2023-07-02T07:30:48.900Z,46.86
2023-07-02T07:31:48.485Z,50.92
2023-07-02T07:32:48.512Z,51.74
2023-07-02T07:33:48.388Z,50.97
2023-07-02T07:34:48.485Z,51.62
2023-07-02T07:35:48.608Z,50.90
2023-07-02T07:36:48.382Z,53.25
2023-07-02T07:37:49.165Z,49.51
2023-07-02T07:38:48.390Z,43.74
2023-07-02T07:39:48.441Z,43.04
2023-07-02T07:40:48.915Z,45.32
2023-07-02T07:41:48.430Z,51.92
2023-07-02T07:42:48.416Z,45.41
2023-07-02T07:43:49.189Z,46.74
2023-07-02T07:44:48.390Z,43.85
2023-07-02T07:45:48.265Z,45.55
2023-07-02T07:46:48.310Z,41.56
2023-07-02T07:47:48.446Z,44.51
2023-07-02T07:48:48.218Z,46.51
2023-07-02T07:49:48.263Z,48.27
2023-07-02T07:50:48.457Z,42.10
2023-07-02T07:51:48.262Z,50.89
2023-07-02T07:52:48.232Z,50.56
2023-07-02T07:53:48.301Z,50.19
2023-07-02T07:54:48.429Z,52.44
2023-07-02T07:55:48.293Z,50.42
2023-07-02T07:56:48.204Z,50.21
2023-07-02T07:57:48.163Z,50.60
2023-07-02T07:58:48.232Z,51.17
2023-07-02T07:59:48.202Z,52.89
2023-07-02T08:00:48.446Z,46.17
2023-07-02T08:01:48.093Z,44.96
2023-07-02T08:02:48.156Z,46.59
2023-07-02T08:03:48.078Z,49.15
2023-07-02T08:04:48.107Z,43.72
2023-07-02T08:05:48.025Z,47.14
2023-07-02T08:06:48.010Z,46.43
2023-07-02T08:07:48.048Z,45.76
2023-07-02T08:08:48.008Z,44.07
2023-07-02T08:09:48.010Z,45.48
2023-07-02T08:10:48.366Z,47.60
2023-07-02T08:11:47.957Z,47.25
2023-07-02T08:12:47.972Z,43.76
2023-07-02T08:13:47.962Z,44.59
2023-07-02T08:14:47.943Z,45.41
2023-07-02T08:15:47.963Z,44.92
2023-07-02T08:16:47.922Z,45.42
2023-07-02T08:17:47.962Z,46.44
2023-07-02T08:18:47.905Z,44.73
2023-07-02T08:19:47.874Z,46.41
2023-07-02T08:20:48.150Z,42.23
2023-07-02T08:21:47.874Z,38.88
2023-07-02T08:22:47.864Z,40.56
2023-07-02T08:23:47.827Z,43.75
2023-07-02T08:24:47.820Z,44.75
2023-07-02T08:25:47.815Z,43.62
2023-07-02T08:26:47.815Z,40.92
2023-07-02T08:27:47.804Z,47.41
2023-07-02T08:28:47.793Z,44.96
2023-07-02T08:29:47.769Z,41.93
2023-07-02T08:30:47.948Z,40.47
2023-07-02T08:31:47.779Z,39.54
2023-07-02T08:32:47.763Z,43.42
2023-07-02T08:33:47.732Z,40.10
2023-07-02T08:34:47.770Z,47.47
2023-07-02T08:35:47.710Z,45.03
2023-07-02T08:36:47.716Z,41.65
2023-07-02T08:37:47.685Z,48.08
2023-07-02T08:38:47.678Z,44.95
2023-07-02T08:39:47.667Z,43.82
2023-07-02T08:40:47.911Z,46.50
2023-07-02T08:41:47.679Z,45.47
2023-07-02T08:42:47.630Z,42.01
2023-07-02T08:43:47.619Z,44.84
2023-07-02T08:44:47.614Z,47.62
2023-07-02T08:45:47.617Z,45.26
2023-07-02T08:46:48.850Z,41.93
2023-07-02T08:47:48.775Z,43.00
2023-07-02T08:48:48.743Z,42.96
2023-07-02T08:49:48.762Z,42.74
2023-07-02T08:50:49.244Z,43.25
2023-07-02T08:51:48.721Z,45.96
2023-07-02T08:52:48.694Z,41.33
2023-07-02T08:53:48.748Z,45.39
2023-07-02T08:54:48.709Z,46.46
2023-07-02T08:55:48.718Z,44.36
2023-07-02T08:56:48.723Z,46.07
2023-07-02T08:57:48.687Z,40.51
2023-07-02T08:58:48.653Z,42.11
2023-07-02T08:59:48.652Z,43.39
2023-07-02T09:00:48.890Z,43.97
2023-07-02T09:01:48.694Z,46.03
2023-07-02T09:02:48.706Z,46.02
2023-07-02T09:03:48.607Z,44.45
2023-07-02T09:04:48.680Z,45.35
2023-07-02T09:05:48.595Z,42.59
2023-07-02T09:06:48.717Z,43.07
2023-07-02T09:07:49.815Z,41.69
2023-07-02T09:08:48.555Z,44.09
2023-07-02T09:09:48.658Z,42.88
2023-07-02T09:10:48.771Z,44.75
2023-07-02T09:11:48.554Z,44.47
2023-07-02T09:12:48.521Z,41.42
2023-07-02T09:13:48.548Z,40.01
2023-07-02T09:14:48.514Z,47.90
2023-07-02T09:15:48.490Z,46.50
2023-07-02T09:16:48.526Z,41.77
2023-07-02T09:17:48.524Z,38.21
2023-07-02T09:18:48.468Z,41.34
2023-07-02T09:19:48.495Z,37.58
2023-07-02T09:20:48.905Z,43.14
2023-07-02T09:21:48.478Z,42.39
2023-07-02T09:22:48.458Z,47.48
2023-07-02T09:23:48.504Z,41.58
2023-07-02T09:24:48.438Z,43.21
2023-07-02T09:25:48.390Z,45.49
2023-07-02T09:26:48.381Z,41.65
2023-07-02T09:27:48.424Z,42.41
2023-07-02T09:28:50.787Z,44.90
2023-07-02T09:29:48.422Z,42.95
2023-07-02T09:30:48.542Z,46.22
2023-07-02T09:32:07.322Z,46.52
2023-07-02T09:32:50.456Z,42.96
2023-07-02T09:33:48.551Z,48.45
2023-07-02T09:34:48.423Z,49.57
2023-07-02T09:35:49.056Z,48.00
2023-07-02T09:36:48.774Z,41.75
2023-07-02T09:37:48.426Z,40.57
2023-07-02T09:38:48.414Z,48.89
2023-07-02T09:39:48.664Z,46.20
2023-07-02T09:40:48.469Z,42.51
2023-07-02T09:41:48.312Z,42.36
2023-07-02T09:42:48.311Z,46.16
2023-07-02T09:43:48.338Z,48.98
2023-07-02T09:44:48.332Z,47.18
2023-07-02T09:45:48.924Z,41.69
2023-07-02T09:46:48.361Z,43.09
2023-07-02T09:47:48.362Z,40.21
2023-07-02T09:48:48.336Z,44.71
2023-07-02T09:49:48.251Z,40.61
2023-07-02T09:50:48.690Z,45.25
2023-07-02T09:51:48.192Z,47.54
2023-07-02T09:52:48.226Z,39.39
2023-07-02T09:53:48.173Z,39.86
2023-07-02T09:54:48.830Z,44.41
2023-07-02T09:55:48.236Z,46.58
2023-07-02T09:56:48.308Z,41.23
2023-07-02T09:57:48.348Z,44.31
2023-07-02T09:58:48.333Z,43.56
2023-07-02T09:59:48.145Z,47.84
2023-07-02T10:00:48.457Z,42.11
2023-07-02T10:01:48.222Z,45.86
2023-07-02T10:02:48.139Z,45.17
2023-07-02T10:03:48.104Z,44.84
2023-07-02T10:04:48.178Z,49.76
2023-07-02T10:05:48.176Z,42.70
2023-07-02T10:06:48.064Z,44.24
2023-07-02T10:07:48.895Z,45.27
2023-07-02T10:08:47.990Z,44.31
2023-07-02T10:09:48.043Z,45.26
2023-07-02T10:10:48.230Z,50.17
2023-07-02T10:11:47.957Z,44.38
2023-07-02T10:12:47.966Z,52.07
2023-07-02T10:13:47.917Z,47.04
2023-07-02T10:14:48.001Z,44.39
2023-07-02T10:15:47.944Z,44.09
2023-07-02T10:16:47.954Z,40.82
2023-07-02T10:17:48.181Z,41.03
2023-07-02T10:18:48.026Z,40.00
2023-07-02T10:19:48.272Z,45.43
2023-07-02T10:20:49.715Z,44.99
2023-07-02T10:21:52.516Z,39.89
2023-07-02T10:22:49.029Z,43.67
2023-07-02T10:23:48.163Z,44.40
2023-07-02T10:25:11.526Z,48.08
2023-07-02T10:25:48.911Z,42.83
2023-07-02T10:26:47.952Z,50.08
2023-07-02T10:27:48.850Z,44.60
2023-07-02T10:28:47.783Z,43.78
2023-07-02T10:29:47.928Z,46.44
2023-07-02T10:30:48.023Z,38.75
2023-07-02T10:31:47.912Z,43.35
2023-07-02T10:32:51.898Z,47.48
2023-07-02T10:33:49.005Z,45.17
2023-07-02T10:34:48.120Z,47.72
2023-07-02T10:35:47.990Z,40.88
2023-07-02T10:36:48.970Z,48.02
2023-07-02T10:37:47.954Z,43.67
2023-07-02T10:38:48.192Z,40.15
2023-07-02T10:44:46.988Z,43.10
2023-07-02T10:46:05.099Z,45.58
2023-07-02T10:49:01.427Z,42.76
2023-07-02T10:50:01.209Z,45.07
2023-07-02T10:51:23.704Z,39.29
2023-07-02T10:52:03.125Z,42.14
2023-07-02T10:53:01.120Z,44.02
2023-07-02T10:54:01.094Z,45.97
2023-07-02T10:55:01.070Z,42.08
2023-07-02T10:56:01.043Z,44.68
2023-07-02T10:57:01.006Z,48.76
2023-07-02T10:58:29.011Z,43.46
2023-07-02T11:02:58.841Z,49.60
2023-07-02T11:03:57.552Z,39.58
2023-07-02T11:04:58.627Z,41.00
2023-07-02T11:05:57.393Z,48.84
2023-07-02T11:09:32.863Z,44.96
2023-07-02T11:10:35.954Z,45.38
2023-07-02T11:15:33.025Z,40.92
2023-07-02T11:16:33.074Z,42.43
2023-07-02T11:17:33.094Z,42.48
2023-07-02T11:18:33.235Z,39.96
2023-07-02T11:19:32.991Z,48.35
2023-07-02T11:20:32.974Z,43.64
2023-07-02T11:21:33.055Z,47.97
2023-07-02T11:22:32.977Z,46.70
2023-07-02T11:23:32.944Z,46.99
2023-07-02T11:24:33.259Z,44.40
2023-07-02T11:25:39.931Z,44.77
2023-07-02T11:26:32.923Z,43.66
2023-07-02T11:27:32.911Z,44.11
2023-07-02T11:28:32.890Z,41.05
2023-07-02T11:29:32.888Z,42.75
2023-07-02T11:30:33.164Z,48.45
2023-07-02T11:56:34.688Z,43.85
2023-07-02T11:57:30.974Z,40.80
2023-07-02T11:58:30.214Z,39.90
2023-07-02T13:08:11.687Z,39.30
2023-07-02T13:09:11.293Z,47.82
2023-07-02T13:32:46.089Z,39.78
2023-07-02T14:47:09.406Z,43.21
2023-07-02T14:48:09.279Z,38.34
2023-07-02T14:49:09.247Z,40.19
2023-07-02T14:50:09.277Z,38.74
2023-07-02T14:51:09.229Z,44.99
2023-07-02T14:52:09.261Z,44.27
2023-07-02T14:53:09.377Z,43.32
2023-07-02T14:54:09.193Z,42.82
2023-07-02T14:55:09.202Z,44.10
2023-07-02T14:56:09.161Z,45.58
2023-07-02T14:57:09.170Z,40.21
2023-07-02T14:58:09.156Z,46.00
2023-07-02T14:59:09.129Z,49.15
2023-07-02T15:00:09.117Z,44.42
2023-07-02T15:01:09.127Z,46.53
2023-07-02T15:02:09.140Z,45.16
2023-07-02T15:03:09.208Z,51.79
2023-07-02T15:04:09.220Z,48.02
2023-07-02T15:05:09.313Z,47.65
2023-07-02T15:06:09.071Z,47.61
2023-07-02T15:07:09.114Z,47.08
2023-07-02T15:08:10.247Z,45.81
2023-07-02T15:09:10.233Z,46.99
2023-07-02T15:10:10.195Z,46.12
2023-07-02T15:11:10.200Z,41.81
2023-07-02T15:12:10.233Z,46.60
2023-07-02T15:13:10.187Z,45.98
2023-07-02T15:14:10.186Z,40.75
2023-07-02T15:15:10.127Z,50.89
2023-07-02T15:16:10.148Z,48.78
2023-07-02T15:17:10.167Z,46.20
2023-07-02T15:18:10.102Z,45.79
2023-07-02T15:19:10.104Z,46.34
2023-07-02T15:20:10.084Z,42.75
2023-07-02T15:21:10.109Z,48.13
2023-07-02T15:22:10.187Z,45.74
2023-07-02T15:23:10.074Z,45.19
2023-07-02T15:24:10.090Z,45.08
2023-07-02T15:25:10.053Z,42.85
2023-07-02T15:26:10.045Z,40.35
2023-07-02T15:27:10.102Z,42.38
2023-07-02T15:28:10.050Z,41.33
2023-07-02T15:29:10.015Z,43.04
2023-07-02T15:30:10.010Z,43.09
2023-07-02T15:31:10.062Z,46.34
2023-07-02T15:32:10.152Z,46.62
2023-07-02T15:33:09.981Z,45.84
2023-07-02T15:34:09.989Z,44.75
2023-07-02T15:35:10.973Z,43.75
2023-07-02T15:36:09.936Z,41.32
2023-07-02T15:37:09.926Z,42.52
2023-07-02T15:38:09.922Z,39.13
2023-07-02T15:39:09.940Z,40.05
2023-07-02T15:40:09.888Z,45.76
2023-07-02T15:41:09.903Z,42.48
2023-07-02T15:42:09.935Z,45.26
2023-07-02T15:43:09.968Z,50.70
2023-07-02T15:44:09.881Z,44.69
2023-07-02T15:45:09.851Z,47.79
2023-07-02T15:46:09.860Z,45.86
2023-07-02T15:47:09.888Z,40.64
2023-07-02T15:48:09.836Z,42.78
2023-07-02T15:49:09.852Z,44.46
2023-07-02T15:50:09.815Z,41.00
2023-07-02T15:51:09.813Z,44.05
2023-07-02T15:52:09.819Z,42.03
2023-07-02T15:53:09.816Z,45.57
2023-07-02T15:54:09.784Z,46.15
2023-07-02T15:55:09.814Z,44.45
2023-07-02T15:56:09.752Z,45.49
2023-07-02T15:57:09.809Z,47.83
2023-07-02T15:58:09.861Z,49.98
2023-07-02T15:59:09.753Z,46.25
2023-07-02T16:00:09.737Z,46.02
2023-07-02T16:01:09.690Z,45.50
2023-07-02T16:02:09.728Z,48.80
2023-07-02T16:03:09.813Z,48.14
2023-07-02T16:04:10.174Z,46.34
2023-07-02T16:05:09.834Z,45.29
2023-07-02T16:06:09.944Z,41.72
2023-07-02T16:07:09.637Z,49.50
2023-07-02T16:08:09.961Z,48.30
2023-07-02T16:09:09.713Z,45.44
2023-07-02T16:10:09.601Z,41.68
2023-07-02T16:11:09.600Z,46.76
2023-07-02T16:12:09.638Z,44.79
2023-07-02T16:13:09.614Z,43.78
2023-07-02T16:14:09.600Z,45.92
2023-07-02T16:15:09.572Z,45.49
2023-07-02T16:16:09.563Z,47.38
2023-07-02T16:17:09.627Z,45.54
2023-07-02T16:18:09.576Z,48.68
2023-07-02T16:19:09.745Z,48.77
2023-07-02T16:20:09.789Z,46.62